Terminal Aerodrome Forecast
Issued by NWS

Home | Current Version | Previous Version | Text Only | Print | Product List | Glossary On
Versions: 1 2 3 4 5 6 7 8 9 10 11 12 13 14 15 16 17
000
FTUS45 KGJT 241145
TAFMTJ
TAF
KMTJ 241145Z 2412/2512 16006KT P6SM BKN200
     FM241400 24004KT P6SM SCT200
     FM241800 VRB03KT P6SM VCSH BKN200
     FM242000 20007KT P6SM VCTS BKN120CB
     FM250300 15006KT P6SM VCSH BKN130
     FM250600 13005KT P6SM BKN100=

USA.gov is the U.S. government's official web portal to all federal, state and local government web resources and services.